Terminal Aerodrome Forecast
Issued by NWS

Home | Current Version | Previous Version | Graphics & Text | Print | Product List | Glossary On
Versions: 1 2 3 4 5 6 7 8 9 10 11 12 13 14 15 16 17 18 19
000
FTUS43 KGRB 190500
TAFCWA
TAF
KCWA 190530Z 1906/2006 31003KT P6SM SCT250
     FM190700 VRB02KT P6SM SKC
     FM191400 16004KT P6SM OVC015
     FM192200 18004KT P6SM SCT015 OVC100
     FM200300 16002KT 6SM BR BKN012
      AMD LTD TO CLD VIS AND WIND TIL 191200=

USA.gov is the U.S. government's official web portal to all federal, state and local government web resources and services.